Time;durP1;ratioP1;P1;durP2;ratioP2;P2;SDS_P1;SDS_P2;PMS_P1;PMS_P2;Temp;Humidity;BMP_temperature;BMP_pressure;BME280_temperature;BME280_humidity;BME280_pressure;Samples;Min_cycle;Max_cycle;Signal;HPM_P1;HPM_P2
2022/03/17 00:01:32;;;;;;;24.65;20.08;;;12.40;99.90;;;;;;4969112;28;20363;-65
2022/03/17 00:03:58;;;;;;;22.17;18.23;;;12.40;99.90;;;;;;4967998;28;20051;-65
2022/03/17 00:06:24;;;;;;;24.55;18.08;;;12.40;99.90;;;;;;4971578;28;20497;-65
2022/03/17 00:08:49;;;;;;;23.80;18.63;;;12.40;99.90;;;;;;4960462;28;20069;-65
2022/03/17 00:11:15;;;;;;;21.80;18.70;;;12.30;99.90;;;;;;4968840;28;20039;-65
2022/03/17 00:13:41;;;;;;;28.35;18.65;;;12.30;99.90;;;;;;4984211;28;20043;-65
2022/03/17 00:16:09;;;;;;;22.38;18.27;;;12.30;99.90;;;;;;4978248;28;20039;-65
2022/03/17 00:18:35;;;;;;;28.10;18.83;;;12.30;99.90;;;;;;4954586;28;20510;-65
2022/03/17 00:21:01;;;;;;;23.13;19.15;;;12.30;99.90;;;;;;4975782;28;20409;-65
2022/03/17 00:23:26;;;;;;;26.63;19.10;;;12.20;99.90;;;;;;4972271;28;20042;-65
2022/03/17 00:25:52;;;;;;;22.77;19.48;;;12.20;99.90;;;;;;4952005;28;20047;-65
2022/03/17 00:28:17;;;;;;;23.60;18.90;;;12.20;99.90;;;;;;4959818;28;20054;-65
2022/03/17 00:30:43;;;;;;;27.63;18.70;;;12.20;99.90;;;;;;4958322;28;20040;-65
2022/03/17 00:33:08;;;;;;;24.52;20.27;;;12.20;99.90;;;;;;4960697;28;20047;-65
2022/03/17 00:35:38;;;;;;;24.83;19.30;;;12.20;99.90;;;;;;4966615;28;20503;-65
2022/03/17 00:38:07;;;;;;;21.75;18.15;;;12.10;99.90;;;;;;4952321;28;20062;-65
2022/03/17 00:40:37;;;;;;;23.75;19.70;;;12.10;99.90;;;;;;4974671;28;20128;-65
2022/03/17 00:43:06;;;;;;;24.23;20.25;;;12.10;99.90;;;;;;4982504;28;20055;-65
2022/03/17 00:45:32;;;;;;;25.13;21.10;;;12.10;99.90;;;;;;4970322;28;20046;-65
2022/03/17 00:47:58;;;;;;;27.27;19.58;;;12.10;99.90;;;;;;4975041;28;20046;-65
2022/03/17 00:50:24;;;;;;;24.75;18.45;;;12.00;99.90;;;;;;4981394;28;20043;-65
2022/03/17 00:52:49;;;;;;;24.02;17.60;;;12.10;99.90;;;;;;4970485;28;20054;-65
2022/03/17 00:55:15;;;;;;;24.88;19.58;;;12.10;99.90;;;;;;4962187;28;20035;-65
2022/03/17 00:57:41;;;;;;;24.55;20.27;;;12.00;99.90;;;;;;4961736;28;20054;-65
2022/03/17 01:00:18;;;;;;;28.33;19.75;;;12.00;99.90;;;;;;4954592;28;20103;-65
2022/03/17 01:02:45;;;;;;;23.25;18.80;;;12.00;99.90;;;;;;4978809;28;20042;-63
2022/03/17 01:05:12;;;;;;;22.92;18.60;;;12.00;99.90;;;;;;4987668;28;20465;-63
2022/03/17 01:07:37;;;;;;;25.15;20.13;;;12.00;99.90;;;;;;4961611;28;20557;-63
2022/03/17 01:10:08;;;;;;;22.70;19.02;;;12.00;99.90;;;;;;4968556;28;20062;-63
2022/03/17 01:12:34;;;;;;;24.77;19.63;;;12.00;99.90;;;;;;4980633;28;20053;-63
2022/03/17 01:15:00;;;;;;;24.88;19.85;;;11.90;99.90;;;;;;4953995;28;20078;-63
2022/03/17 01:17:27;;;;;;;31.23;21.95;;;11.90;99.90;;;;;;4969817;28;20144;-63
2022/03/17 01:19:52;;;;;;;24.60;20.27;;;11.90;99.90;;;;;;4975277;28;20043;-63
2022/03/17 01:22:18;;;;;;;25.48;20.58;;;11.80;99.90;;;;;;4968626;28;20051;-63
2022/03/17 01:24:45;;;;;;;25.95;20.13;;;11.80;99.90;;;;;;4973058;28;20652;-63
2022/03/17 01:27:11;;;;;;;26.08;21.70;;;11.80;99.90;;;;;;4962168;28;20051;-63
2022/03/17 01:29:38;;;;;;;26.20;20.45;;;11.80;99.90;;;;;;4969254;28;20480;-63
2022/03/17 01:32:04;;;;;;;25.25;21.02;;;11.80;99.90;;;;;;4989914;28;20046;-65
2022/03/17 01:34:30;;;;;;;30.70;20.70;;;11.80;99.90;;;;;;4967183;28;20063;-65
2022/03/17 01:36:55;;;;;;;27.42;21.85;;;11.80;99.90;;;;;;4983137;28;20174;-65
2022/03/17 01:39:21;;;;;;;25.95;21.13;;;11.80;99.90;;;;;;4977657;28;20050;-65
2022/03/17 01:41:46;;;;;;;28.98;21.08;;;11.80;99.90;;;;;;4973752;28;20185;-65
2022/03/17 01:44:12;;;;;;;27.13;21.52;;;11.80;99.90;;;;;;4976293;28;20051;-65
2022/03/17 01:49:21;;;;;;;27.80;21.80;;;11.70;99.90;;;;;;4964617;28;20086;-65
2022/03/17 01:51:48;;;;;;;25.23;20.67;;;11.70;99.90;;;;;;4970354;28;20059;-65
2022/03/17 01:54:15;;;;;;;30.33;22.05;;;11.60;99.90;;;;;;4989300;28;20060;-65
2022/03/17 01:56:42;;;;;;;24.85;20.88;;;11.60;99.90;;;;;;4961559;28;20080;-65
2022/03/17 01:59:07;;;;;;;29.17;22.90;;;11.60;99.90;;;;;;4951864;28;20047;-65
2022/03/17 02:01:33;;;;;;;31.38;23.48;;;11.60;99.90;;;;;;4975748;28;20476;-65
2022/03/17 02:03:59;;;;;;;29.95;23.55;;;11.60;99.90;;;;;;4976153;28;20047;-65
2022/03/17 02:06:25;;;;;;;28.70;23.48;;;11.50;99.90;;;;;;4956293;28;20142;-65
2022/03/17 02:08:51;;;;;;;30.48;22.73;;;11.50;99.90;;;;;;4985567;28;20124;-65
2022/03/17 02:14:01;;;;;;;32.45;24.23;;;11.60;99.90;;;;;;4966578;28;20166;-65
2022/03/17 02:16:30;;;;;;;28.60;24.52;;;11.50;99.90;;;;;;4955881;28;20130;-65
2022/03/17 02:18:56;;;;;;;26.95;22.92;;;11.50;99.90;;;;;;4958979;28;20047;-65
2022/03/17 02:21:21;;;;;;;27.52;24.30;;;11.50;99.90;;;;;;4966987;28;20036;-65
2022/03/17 02:26:31;;;;;;;28.23;24.75;;;11.50;99.90;;;;;;4969207;28;20057;-65
2022/03/17 02:28:59;;;;;;;29.65;24.95;;;11.40;99.90;;;;;;4962228;28;20043;-65
2022/03/17 02:31:25;;;;;;;29.25;23.58;;;11.40;99.90;;;;;;4963082;28;20046;-65
2022/03/17 02:33:51;;;;;;;30.00;24.10;;;11.40;99.90;;;;;;4961277;28;20058;-65
2022/03/17 02:36:18;;;;;;;32.55;26.27;;;11.40;99.90;;;;;;4966281;28;20137;-65
2022/03/17 02:38:44;;;;;;;32.53;25.48;;;11.40;99.90;;;;;;4969230;28;20045;-65
2022/03/17 02:41:21;;;;;;;31.13;26.20;;;11.50;99.90;;;;;;4973461;28;20054;-65
2022/03/17 02:43:51;;;;;;;30.10;24.58;;;11.50;99.90;;;;;;4964633;28;20086;-65
2022/03/17 02:46:17;;;;;;;33.85;26.45;;;11.40;99.90;;;;;;4973888;28;20138;-65
2022/03/17 02:48:43;;;;;;;33.35;25.00;;;11.40;99.90;;;;;;4956143;28;20491;-65
2022/03/17 02:51:09;;;;;;;32.63;26.73;;;11.40;99.90;;;;;;4976160;28;20042;-65
2022/03/17 02:53:35;;;;;;;33.85;25.55;;;11.40;99.90;;;;;;4973755;28;20402;-65
2022/03/17 02:56:00;;;;;;;30.98;24.63;;;11.40;99.90;;;;;;4953858;28;20042;-65
2022/03/17 02:58:26;;;;;;;34.00;26.77;;;11.40;99.90;;;;;;4963393;28;20553;-65
2022/03/17 03:00:51;;;;;;;32.92;27.42;;;11.40;99.90;;;;;;4979779;28;20050;-65
2022/03/17 03:03:17;;;;;;;32.45;26.67;;;11.40;99.90;;;;;;4954041;28;20030;-65
2022/03/17 03:05:43;;;;;;;35.70;27.65;;;11.30;99.90;;;;;;4979982;28;20101;-65
2022/03/17 03:08:09;;;;;;;35.47;28.27;;;11.20;99.90;;;;;;4959939;28;20506;-65
2022/03/17 03:10:35;;;;;;;36.88;30.75;;;11.20;99.90;;;;;;4977958;28;20050;-66
2022/03/17 03:13:01;;;;;;;38.50;30.33;;;11.10;99.90;;;;;;4992497;28;20050;-66
2022/03/17 03:15:26;;;;;;;35.78;30.42;;;11.00;99.90;;;;;;4983631;28;20035;-64
2022/03/17 03:17:52;;;;;;;41.22;31.58;;;11.00;99.90;;;;;;4968576;28;20050;-64
2022/03/17 03:20:18;;;;;;;42.63;32.13;;;10.90;99.90;;;;;;4972907;28;20047;-64
2022/03/17 03:22:43;;;;;;;38.95;31.48;;;10.90;99.90;;;;;;4967625;28;20109;-64
2022/03/17 03:25:09;;;;;;;46.80;35.22;;;10.80;99.90;;;;;;4966315;28;20051;-64
2022/03/17 03:27:37;;;;;;;39.08;31.90;;;10.80;99.90;;;;;;4968663;28;20479;-64
2022/03/17 03:30:03;;;;;;;43.45;33.40;;;10.70;99.90;;;;;;4962557;28;20102;-65
2022/03/17 03:32:29;;;;;;;43.40;33.13;;;10.70;99.90;;;;;;4981059;28;20042;-65
2022/03/17 03:34:55;;;;;;;41.28;33.72;;;10.70;99.90;;;;;;4971370;28;20055;-65
2022/03/17 03:37:23;;;;;;;44.38;35.00;;;10.60;99.90;;;;;;4984677;28;20121;-64
2022/03/17 03:39:57;;;;;;;48.42;37.67;;;10.70;99.90;;;;;;4967366;28;20039;-65
2022/03/17 03:42:25;;;;;;;52.92;36.25;;;10.60;99.90;;;;;;4963937;28;20043;-65
2022/03/17 03:44:51;;;;;;;51.05;35.13;;;10.50;99.90;;;;;;4961549;28;20062;-65
2022/03/17 03:47:17;;;;;;;46.88;33.78;;;10.60;99.90;;;;;;4973175;28;20053;-65
2022/03/17 03:49:43;;;;;;;45.92;37.22;;;10.50;99.90;;;;;;4977867;28;20042;-64
2022/03/17 03:52:11;;;;;;;46.40;36.90;;;10.50;99.90;;;;;;5001299;28;20047;-64
2022/03/17 03:54:37;;;;;;;54.60;37.55;;;10.40;99.90;;;;;;4969111;28;20051;-65
2022/03/17 03:57:04;;;;;;;48.50;34.17;;;10.40;99.90;;;;;;4971640;28;20043;-65
2022/03/17 03:59:30;;;;;;;46.85;33.90;;;10.40;99.90;;;;;;4971173;28;20768;-66
2022/03/17 04:02:04;;;;;;;47.55;33.35;;;10.40;99.90;;;;;;4966630;28;20118;-66
2022/03/17 04:04:31;;;;;;;33.22;22.20;;;10.40;99.90;;;;;;4973195;28;20051;-65
2022/03/17 04:06:59;;;;;;;24.00;17.60;;;10.40;99.90;;;;;;5017895;28;20564;-65
2022/03/17 04:09:27;;;;;;;16.85;12.75;;;10.20;99.90;;;;;;4978165;28;20390;-65
2022/03/17 04:11:54;;;;;;;16.13;11.90;;;10.10;99.90;;;;;;4954580;28;20082;-65
2022/03/17 04:14:20;;;;;;;17.38;10.27;;;10.00;99.90;;;;;;4978377;28;20051;-65
2022/03/17 04:16:46;;;;;;;17.90;10.93;;;9.70;99.90;;;;;;4963598;28;20066;-66
2022/03/17 04:19:12;;;;;;;13.35;9.80;;;9.60;99.90;;;;;;4971517;28;20046;-65
2022/03/17 04:21:38;;;;;;;13.35;9.82;;;9.60;99.90;;;;;;4980993;28;20085;-65
2022/03/17 04:24:04;;;;;;;14.05;8.90;;;9.50;99.90;;;;;;4965132;28;20169;-65
2022/03/17 04:26:30;;;;;;;13.52;9.52;;;9.50;99.90;;;;;;4978851;28;20125;-65
2022/03/17 04:28:56;;;;;;;13.88;9.50;;;9.40;99.90;;;;;;4971594;28;20133;-66
2022/03/17 04:31:22;;;;;;;14.57;8.70;;;9.40;99.90;;;;;;4960373;28;20047;-65
2022/03/17 04:33:48;;;;;;;13.73;7.57;;;9.30;99.90;;;;;;4954625;28;20439;-65
2022/03/17 04:36:15;;;;;;;12.07;7.25;;;9.30;99.90;;;;;;4971552;28;20051;-65
2022/03/17 04:38:41;;;;;;;10.32;6.68;;;9.30;99.90;;;;;;4970408;28;20042;-66
2022/03/17 04:41:08;;;;;;;10.85;7.20;;;9.20;99.90;;;;;;4975440;28;20082;-66
2022/03/17 04:43:34;;;;;;;15.07;8.57;;;9.30;99.90;;;;;;4964267;28;20050;-66
2022/03/17 04:46:00;;;;;;;14.20;8.25;;;9.20;99.90;;;;;;4958334;28;20107;-65
2022/03/17 04:48:26;;;;;;;21.65;8.38;;;9.20;99.90;;;;;;4963125;28;20578;-66
2022/03/17 04:50:51;;;;;;;15.50;9.10;;;9.20;99.90;;;;;;4965369;28;20050;-66
2022/03/17 04:53:32;;;;;;;32.22;11.43;;;9.10;99.90;;;;;;4950839;28;20051;-66
2022/03/17 04:56:06;;;;;;;30.63;12.68;;;9.10;99.90;;;;;;4953864;28;20043;-66
2022/03/17 04:58:33;;;;;;;25.70;13.13;;;9.20;99.90;;;;;;4980562;28;20699;-66
2022/03/17 05:01:00;;;;;;;25.27;11.70;;;9.10;99.90;;;;;;4965717;28;20139;-66
2022/03/17 05:03:26;;;;;;;24.80;12.40;;;9.00;99.90;;;;;;4959643;28;20058;-66
2022/03/17 05:05:52;;;;;;;25.20;11.90;;;9.00;99.90;;;;;;4961117;28;20039;-66
2022/03/17 05:08:18;;;;;;;24.40;10.80;;;9.00;99.90;;;;;;4950830;28;20073;-66
2022/03/17 05:10:44;;;;;;;23.27;10.70;;;9.00;99.90;;;;;;4957248;28;20054;-66
2022/03/17 05:13:12;;;;;;;27.35;10.85;;;9.00;99.90;;;;;;4957223;28;20034;-66
2022/03/17 05:15:38;;;;;;;22.88;11.40;;;9.00;99.90;;;;;;4979524;28;20050;-66
2022/03/17 05:18:05;;;;;;;31.83;11.15;;;8.90;99.90;;;;;;4970708;28;20047;-66
2022/03/17 05:20:31;;;;;;;15.23;5.40;;;8.90;99.90;;;;;;4969594;28;20049;-66
2022/03/17 05:22:57;;;;;;;21.45;5.53;;;8.90;99.90;;;;;;4953605;28;20170;-66
2022/03/17 05:25:22;;;;;;;31.30;5.18;;;8.90;99.90;;;;;;4965156;28;20043;-66
2022/03/17 05:27:49;;;;;;;15.65;4.03;;;8.90;99.90;;;;;;4956914;28;20082;-66
2022/03/17 05:30:17;;;;;;;17.52;5.20;;;8.90;99.90;;;;;;4983291;28;20410;-66
2022/03/17 05:32:43;;;;;;;18.15;5.07;;;8.80;99.90;;;;;;4988123;28;20039;-66
2022/03/17 05:35:10;;;;;;;16.33;3.88;;;8.90;99.90;;;;;;4973978;28;20668;-66
2022/03/17 05:37:36;;;;;;;14.35;3.63;;;8.80;99.90;;;;;;4960899;28;20042;-67
2022/03/17 05:40:04;;;;;;;24.90;5.20;;;8.80;99.90;;;;;;4989171;28;20053;-66
2022/03/17 05:42:31;;;;;;;15.93;4.32;;;8.80;99.90;;;;;;4986995;28;20472;-67
2022/03/17 05:44:56;;;;;;;19.08;4.63;;;8.80;99.90;;;;;;4966036;28;20075;-66
2022/03/17 05:47:22;;;;;;;14.75;4.25;;;8.80;99.90;;;;;;4958301;28;20137;-67
2022/03/17 05:49:48;;;;;;;23.00;5.07;;;8.80;99.90;;;;;;4973689;28;20043;-67
2022/03/17 05:52:14;;;;;;;15.68;4.25;;;8.80;99.90;;;;;;4952168;28;20043;-67
2022/03/17 05:54:40;;;;;;;18.38;5.03;;;8.80;99.90;;;;;;4985995;28;20867;-67
2022/03/17 05:57:05;;;;;;;15.98;3.45;;;8.80;99.90;;;;;;4960480;28;20038;-66
2022/03/17 05:59:31;;;;;;;19.65;4.65;;;8.70;99.90;;;;;;4967482;28;20043;-66
2022/03/17 06:01:57;;;;;;;14.57;2.72;;;8.60;99.90;;;;;;4966085;28;20039;-66
2022/03/17 06:04:22;;;;;;;24.95;3.05;;;8.60;99.90;;;;;;4995752;28;20639;-66
2022/03/17 06:06:48;;;;;;;11.00;2.83;;;8.60;99.90;;;;;;4971598;28;20089;-66
2022/03/17 06:09:14;;;;;;;13.05;3.05;;;8.60;99.90;;;;;;4950391;28;20142;-66
2022/03/17 06:11:39;;;;;;;15.60;3.45;;;8.60;99.90;;;;;;4981042;28;20655;-67
2022/03/17 06:14:06;;;;;;;18.17;3.33;;;8.50;99.90;;;;;;4971533;28;20622;-67
2022/03/17 06:16:31;;;;;;;23.38;3.95;;;8.50;99.90;;;;;;4966588;28;20053;-66
2022/03/17 06:18:57;;;;;;;13.65;2.60;;;8.60;99.90;;;;;;4967889;28;20409;-66
2022/03/17 06:21:23;;;;;;;11.40;3.22;;;8.50;99.90;;;;;;4972356;28;20053;-66
2022/03/17 06:23:49;;;;;;;22.55;3.70;;;8.50;99.90;;;;;;4969366;28;20043;-66
2022/03/17 06:26:14;;;;;;;17.23;3.38;;;8.60;99.90;;;;;;4983352;28;20050;-66
2022/03/17 06:28:40;;;;;;;15.60;4.10;;;8.60;99.90;;;;;;4974840;28;20488;-66
2022/03/17 06:31:05;;;;;;;18.23;3.10;;;8.50;99.90;;;;;;4957865;28;20049;-66
2022/03/17 06:33:31;;;;;;;17.17;3.03;;;8.50;99.90;;;;;;4960559;28;20063;-66
2022/03/17 06:35:57;;;;;;;15.85;2.85;;;8.60;99.90;;;;;;4988711;28;20054;-66
2022/03/17 06:38:22;;;;;;;20.45;3.60;;;8.50;99.90;;;;;;5013374;28;20407;-66
2022/03/17 06:40:48;;;;;;;18.95;3.83;;;8.60;99.90;;;;;;4980400;28;20482;-66
2022/03/17 06:43:14;;;;;;;15.50;3.60;;;8.60;99.90;;;;;;4965029;28;20058;-66
2022/03/17 06:45:41;;;;;;;21.00;4.57;;;8.60;99.90;;;;;;4972095;28;20694;-66
2022/03/17 06:48:06;;;;;;;26.98;3.92;;;8.50;99.90;;;;;;4955842;28;20047;-66
2022/03/17 06:50:32;;;;;;;16.95;4.07;;;8.50;99.90;;;;;;4968790;28;20049;-66
2022/03/17 06:52:58;;;;;;;17.83;2.90;;;8.50;99.90;;;;;;4975085;28;20042;-66
2022/03/17 06:55:23;;;;;;;19.90;3.83;;;8.50;99.90;;;;;;4971478;28;20154;-66
2022/03/17 06:57:49;;;;;;;13.05;2.65;;;8.50;99.90;;;;;;4958696;28;20055;-65
2022/03/17 07:00:16;;;;;;;23.02;3.85;;;8.40;99.90;;;;;;4962440;28;20038;-66
2022/03/17 07:02:42;;;;;;;17.27;4.10;;;8.50;99.90;;;;;;4992368;28;20042;-66
2022/03/17 07:05:08;;;;;;;11.48;2.55;;;8.40;99.90;;;;;;4969115;28;20054;-65
2022/03/17 07:07:34;;;;;;;16.52;2.72;;;8.40;99.90;;;;;;4979888;28;20092;-66
2022/03/17 07:10:00;;;;;;;36.83;4.13;;;8.50;99.90;;;;;;4984151;28;20047;-67
2022/03/17 07:12:25;;;;;;;25.42;5.13;;;8.50;99.90;;;;;;4967419;28;20094;-66
2022/03/17 07:14:51;;;;;;;16.95;3.10;;;8.50;99.90;;;;;;4972989;28;20054;-67
2022/03/17 07:17:20;;;;;;;23.50;3.47;;;8.50;99.90;;;;;;4979742;28;20127;-66
2022/03/17 07:19:59;;;;;;;18.73;4.93;;;8.50;99.90;;;;;;4969262;28;20565;-66
2022/03/17 07:22:26;;;;;;;17.20;3.00;;;8.50;99.90;;;;;;4964654;28;20046;-66
2022/03/17 07:24:53;;;;;;;26.83;4.90;;;8.50;99.90;;;;;;4967647;28;20058;-67
2022/03/17 07:27:21;;;;;;;25.83;3.20;;;8.50;99.90;;;;;;4980236;28;20062;-66
2022/03/17 07:29:47;;;;;;;21.30;3.47;;;8.50;99.90;;;;;;4991153;28;20042;-66
2022/03/17 07:32:12;;;;;;;18.25;3.92;;;8.50;99.90;;;;;;4967619;28;20043;-66
2022/03/17 07:34:38;;;;;;;26.40;4.00;;;8.50;99.90;;;;;;4967263;28;20093;-66
2022/03/17 07:37:04;;;;;;;27.48;4.88;;;8.50;99.90;;;;;;4988785;28;20058;-66
2022/03/17 07:39:30;;;;;;;21.63;4.15;;;8.50;99.90;;;;;;4966909;28;20489;-66
2022/03/17 07:41:56;;;;;;;25.55;4.35;;;8.40;99.90;;;;;;4974723;28;20042;-66
2022/03/17 07:44:21;;;;;;;26.95;4.30;;;8.50;99.90;;;;;;4980850;28;20039;-66
2022/03/17 07:46:48;;;;;;;15.40;3.28;;;8.50;99.90;;;;;;4970789;28;20047;-66
2022/03/17 07:49:14;;;;;;;18.17;3.85;;;8.60;99.90;;;;;;4951911;28;20054;-66
2022/03/17 07:51:40;;;;;;;27.90;3.55;;;8.50;99.90;;;;;;4971103;28;20830;-67
2022/03/17 07:54:07;;;;;;;21.17;3.75;;;8.50;99.90;;;;;;4973005;28;20034;-66
2022/03/17 07:56:34;;;;;;;32.45;4.18;;;8.60;99.90;;;;;;4961849;28;20051;-66
2022/03/17 07:59:00;;;;;;;27.63;5.63;;;8.60;99.90;;;;;;4953022;28;20070;-66
2022/03/17 08:01:26;;;;;;;21.10;3.17;;;8.50;99.90;;;;;;4951393;28;20097;-66
2022/03/17 08:03:55;;;;;;;14.00;2.88;;;8.60;99.90;;;;;;4956002;28;20462;-66
2022/03/17 08:06:21;;;;;;;14.05;3.97;;;8.60;99.90;;;;;;4990822;28;20564;-66
2022/03/17 08:08:47;;;;;;;18.92;3.53;;;8.60;99.90;;;;;;4990975;28;20058;-66
2022/03/17 08:11:13;;;;;;;21.23;3.58;;;8.60;99.90;;;;;;4958290;28;20518;-66
2022/03/17 08:13:38;;;;;;;16.10;3.30;;;8.70;99.90;;;;;;4975623;28;20042;-66
2022/03/17 08:16:06;;;;;;;24.60;3.85;;;8.60;99.90;;;;;;4989887;28;20054;-66
2022/03/17 08:18:32;;;;;;;17.35;3.60;;;8.70;99.90;;;;;;4956447;28;20039;-66
2022/03/17 08:20:58;;;;;;;31.13;6.20;;;8.80;99.90;;;;;;4952389;28;20426;-66
2022/03/17 08:23:23;;;;;;;24.35;4.18;;;8.80;99.90;;;;;;4950902;28;20051;-66
2022/03/17 08:25:49;;;;;;;20.83;3.63;;;8.70;99.90;;;;;;4952724;28;20051;-66
2022/03/17 08:28:17;;;;;;;23.65;3.15;;;8.80;99.90;;;;;;4950925;29;20055;-66
2022/03/17 08:30:46;;;;;;;20.08;3.65;;;8.80;99.90;;;;;;4952008;28;20078;-67
2022/03/17 08:33:12;;;;;;;22.98;3.25;;;8.80;99.90;;;;;;4966713;28;20124;-66
2022/03/17 08:35:37;;;;;;;17.95;3.20;;;8.80;99.90;;;;;;4989496;28;20050;-67
2022/03/17 08:38:03;;;;;;;29.02;4.95;;;8.90;99.90;;;;;;4990237;28;20133;-66
2022/03/17 08:40:29;;;;;;;11.95;3.03;;;9.00;99.90;;;;;;4954464;28;20050;-66
2022/03/17 08:42:55;;;;;;;19.65;3.40;;;9.00;99.90;;;;;;4952191;29;20134;-66
2022/03/17 08:50:49;;;;;;;18.60;2.92;;;10.00;99.90;;;;;;4957469;28;20051;-66
2022/03/17 08:53:15;;;;;;;20.52;4.10;;;10.00;99.90;;;;;;4950299;28;20051;-66
2022/03/17 08:55:40;;;;;;;19.23;3.58;;;9.90;99.90;;;;;;4951932;29;20043;-66
2022/03/17 08:58:07;;;;;;;14.77;3.22;;;10.50;99.90;;;;;;4970819;28;20174;-66
2022/03/17 09:00:36;;;;;;;24.27;4.95;;;10.90;99.90;;;;;;4956825;28;20047;-66
2022/03/17 09:03:06;;;;;;;20.75;3.65;;;11.30;99.90;;;;;;4966617;28;20054;-66
2022/03/17 09:05:33;;;;;;;20.30;3.90;;;11.00;99.90;;;;;;4988682;28;20117;-66
2022/03/17 09:07:58;;;;;;;19.80;4.05;;;10.90;99.90;;;;;;4963818;28;20517;-66
2022/03/17 09:10:24;;;;;;;20.27;3.00;;;11.30;99.90;;;;;;4959261;28;20050;-66
2022/03/17 09:12:55;;;;;;;18.90;4.35;;;11.80;99.90;;;;;;4970105;28;20035;-66
2022/03/17 09:15:21;;;;;;;18.08;3.83;;;11.60;99.90;;;;;;4961790;28;20138;-66
2022/03/17 09:17:46;;;;;;;19.88;5.05;;;11.20;99.90;;;;;;4953324;28;20114;-66
2022/03/17 09:20:13;;;;;;;13.82;2.80;;;11.00;99.90;;;;;;4950773;29;20046;-66
2022/03/17 09:22:40;;;;;;;15.05;3.00;;;10.80;99.90;;;;;;4950562;28;20153;-66
2022/03/17 09:25:07;;;;;;;19.42;2.83;;;10.70;99.90;;;;;;4957321;28;20047;-66
2022/03/17 09:27:33;;;;;;;16.42;3.28;;;10.50;99.90;;;;;;4949999;29;20042;-66
2022/03/17 09:29:58;;;;;;;13.05;3.13;;;10.40;99.90;;;;;;4951090;29;20039;-67
2022/03/17 09:32:25;;;;;;;20.02;3.45;;;10.40;99.90;;;;;;4949216;28;20050;-66
2022/03/17 09:34:51;;;;;;;17.75;3.25;;;10.70;99.90;;;;;;4967957;28;20051;-66
2022/03/17 09:37:17;;;;;;;14.10;3.15;;;10.80;99.90;;;;;;4950524;28;20131;-66
2022/03/17 09:39:46;;;;;;;17.20;3.35;;;10.90;99.90;;;;;;4960275;28;20039;-66
2022/03/17 09:42:14;;;;;;;20.02;3.65;;;11.10;99.90;;;;;;4951094;28;20043;-66
2022/03/17 09:44:40;;;;;;;17.83;4.50;;;11.70;99.90;;;;;;4950650;29;20061;-66
2022/03/17 09:47:09;;;;;;;14.57;3.60;;;11.80;99.90;;;;;;4952573;28;20039;-66
2022/03/17 09:49:37;;;;;;;15.48;2.85;;;11.90;99.90;;;;;;4950227;28;20050;-66
2022/03/17 09:52:10;;;;;;;20.63;4.60;;;12.70;99.90;;;;;;4955360;28;20050;-66
2022/03/17 09:54:35;;;;;;;14.90;3.67;;;12.70;99.90;;;;;;4950327;28;20480;-66
2022/03/17 09:57:01;;;;;;;15.18;3.50;;;12.40;99.90;;;;;;4949320;28;20129;-66
2022/03/17 09:59:27;;;;;;;16.95;3.15;;;12.40;99.90;;;;;;4952006;28;20090;-66
2022/03/17 10:01:53;;;;;;;12.07;3.42;;;13.00;99.90;;;;;;4959281;28;20212;-66
2022/03/17 10:04:18;;;;;;;16.83;3.67;;;12.50;99.90;;;;;;4954570;28;20046;-66
2022/03/17 10:06:44;;;;;;;15.60;3.03;;;12.10;99.90;;;;;;4979499;28;20039;-66
2022/03/17 10:09:09;;;;;;;18.17;3.85;;;12.40;99.90;;;;;;4972968;28;20125;-66
2022/03/17 10:11:37;;;;;;;20.30;4.03;;;12.20;99.90;;;;;;4952060;28;20059;-66
2022/03/17 10:14:05;;;;;;;20.75;4.72;;;12.30;99.90;;;;;;4983087;28;20057;-66
2022/03/17 10:16:32;;;;;;;20.33;3.65;;;12.30;99.90;;;;;;4966520;28;20495;-66
2022/03/17 10:19:01;;;;;;;17.52;3.20;;;11.90;99.90;;;;;;4955650;28;20410;-66
2022/03/17 10:21:28;;;;;;;20.05;4.28;;;12.00;99.90;;;;;;4960598;28;20070;-66
2022/03/17 10:24:02;;;;;;;26.55;4.05;;;12.00;99.90;;;;;;4959880;28;20129;-66
2022/03/17 10:26:44;;;;;;;;;;;12.00;99.90;;;;;;4969720;28;20545;-66
2022/03/17 10:29:17;;;;;;;21.15;4.07;;;12.40;99.90;;;;;;4952077;28;19926;-66
2022/03/17 10:31:52;;;;;;;14.07;2.58;;;12.50;99.90;;;;;;4954362;28;20043;-66
2022/03/17 10:34:19;;;;;;;13.27;4.28;;;12.80;99.90;;;;;;4997987;28;20514;-66
2022/03/17 10:36:48;;;;;;;14.25;3.70;;;12.50;99.90;;;;;;4962888;28;20442;-66
2022/03/17 10:39:14;;;;;;;17.20;3.63;;;12.20;99.90;;;;;;4964998;28;20150;-66
2022/03/17 10:41:47;;;;;;;17.98;3.80;;;12.50;99.90;;;;;;4960260;28;20725;-66
2022/03/17 10:44:16;;;;;;;25.88;4.38;;;12.60;99.90;;;;;;4949721;29;20083;-66
2022/03/17 10:47:01;;;;;;;18.80;3.75;;;12.60;99.90;;;;;;4950090;28;20054;-66
2022/03/17 10:49:30;;;;;;;21.20;3.67;;;12.40;99.90;;;;;;4949089;28;20070;-66
2022/03/17 10:51:57;;;;;;;20.10;3.28;;;12.20;99.90;;;;;;4955689;28;20301;-66
2022/03/17 10:54:23;;;;;;;18.60;4.43;;;12.50;99.90;;;;;;4986640;28;20055;-66
2022/03/17 10:57:09;;;;;;;13.77;3.30;;;12.80;99.90;;;;;;4958710;28;20121;-66
2022/03/17 10:59:46;;;;;;;16.25;3.30;;;12.80;99.90;;;;;;4953578;28;20495;-66
2022/03/17 11:02:17;;;;;;;17.48;3.65;;;12.80;99.90;;;;;;4958120;28;20134;-66
2022/03/17 11:04:45;;;;;;;20.38;4.53;;;12.70;99.90;;;;;;4964874;28;20046;-66
2022/03/17 11:07:13;;;;;;;23.45;3.72;;;12.50;99.90;;;;;;4968277;28;20047;-66
2022/03/17 11:09:40;;;;;;;19.30;4.53;;;12.20;99.90;;;;;;4971919;28;20059;-66
2022/03/17 11:12:11;;;;;;;11.43;3.20;;;12.40;99.90;;;;;;4985749;28;20038;-66
2022/03/17 11:14:51;;;;;;;15.13;3.47;;;12.30;99.90;;;;;;4988425;28;20126;-66
2022/03/17 11:17:21;;;;;;;20.52;3.75;;;12.50;99.90;;;;;;4955302;28;20049;-66
2022/03/17 11:19:47;;;;;;;14.65;2.83;;;12.50;99.90;;;;;;4948618;28;20143;-66
2022/03/17 11:22:16;;;;;;;16.60;4.05;;;12.40;99.90;;;;;;4964062;28;20475;-66
2022/03/17 11:24:42;;;;;;;22.38;3.22;;;12.30;99.90;;;;;;4966285;28;20410;-66
2022/03/17 11:27:09;;;;;;;16.65;3.53;;;12.50;99.90;;;;;;4954939;28;20047;-66
2022/03/17 11:29:40;;;;;;;20.23;4.28;;;12.80;99.90;;;;;;4948266;28;20880;-66
2022/03/17 11:32:08;;;;;;;20.67;3.63;;;12.80;99.90;;;;;;4952625;28;20097;-66
2022/03/17 11:34:47;;;;;;;26.13;3.17;;;13.30;99.90;;;;;;4970481;28;20472;-66
2022/03/17 11:37:26;;;;;;;22.88;4.10;;;13.50;99.90;;;;;;4983442;28;20490;-66
2022/03/17 11:40:02;;;;;;;22.58;3.97;;;13.40;99.90;;;;;;4989793;28;20050;-66
2022/03/17 11:42:41;;;;;;;15.52;3.80;;;13.70;99.90;;;;;;4978165;28;20047;-66
2022/03/17 11:45:15;;;;;;;18.58;4.35;;;13.60;99.90;;;;;;4975188;28;20058;-66
2022/03/17 11:47:47;;;;;;;9.43;2.58;;;13.70;99.90;;;;;;4971383;28;20042;-66
2022/03/17 11:50:33;;;;;;;11.73;3.05;;;13.80;99.90;;;;;;4973289;28;20125;-66
2022/03/17 11:53:14;;;;;;;21.63;4.65;;;14.00;99.90;;;;;;4952889;28;20541;-66
2022/03/17 11:55:42;;;;;;;22.00;3.38;;;13.90;99.90;;;;;;4972918;28;20054;-66
2022/03/17 11:58:39;;;;;;;9.82;2.80;;;13.90;99.90;;;;;;4968271;28;20043;-66
2022/03/17 12:01:27;;;;;;;15.35;4.30;;;14.10;99.90;;;;;;4952196;28;20048;-66
2022/03/17 12:04:03;;;;;;;14.68;3.63;;;14.20;99.90;;;;;;4956359;28;20062;-66
2022/03/17 12:06:34;;;;;;;25.23;3.88;;;14.00;99.90;;;;;;4951919;28;20142;-66
2022/03/17 12:09:04;;;;;;;16.35;3.30;;;14.10;99.90;;;;;;4962985;28;20039;-65
2022/03/17 12:11:35;;;;;;;21.30;4.22;;;14.30;99.90;;;;;;4955600;28;20672;-66
2022/03/17 12:14:19;;;;;;;13.27;2.80;;;14.30;99.90;;;;;;4953034;28;20705;-65
2022/03/17 12:16:48;;;;;;;11.85;3.35;;;14.50;99.90;;;;;;4959674;28;20446;-65
2022/03/17 12:19:28;;;;;;;10.38;3.15;;;14.70;99.90;;;;;;4966354;28;20454;-66
2022/03/17 12:22:02;;;;;;;13.60;3.05;;;14.90;99.90;;;;;;4952099;28;20090;-69
2022/03/17 12:24:49;;;;;;;10.70;2.45;;;15.30;99.90;;;;;;4966562;28;20383;-67
2022/03/17 12:27:29;;;;;;;12.85;2.47;;;15.20;99.90;;;;;;4963198;28;20058;-67
2022/03/17 12:30:21;;;;;;;13.88;2.70;;;15.20;99.90;;;;;;4951984;28;20047;-67
2022/03/17 12:32:58;;;;;;;13.98;3.13;;;15.40;99.90;;;;;;4971062;28;20076;-67
2022/03/17 12:35:31;;;;;;;11.88;2.38;;;15.30;99.90;;;;;;4984065;28;20058;-67
2022/03/17 12:37:59;;;;;;;11.90;3.40;;;15.30;99.90;;;;;;4985589;28;20417;-67
2022/03/17 12:40:25;;;;;;;15.05;3.15;;;15.20;99.90;;;;;;4960545;28;20043;-67
2022/03/17 12:42:52;;;;;;;13.85;2.72;;;15.60;99.90;;;;;;4951510;28;20054;-67
2022/03/17 12:45:23;;;;;;;12.95;3.47;;;15.50;99.90;;;;;;4984935;28;20046;-67
2022/03/17 12:47:56;;;;;;;18.17;3.67;;;15.60;99.90;;;;;;4984538;28;20031;-68
2022/03/17 12:50:22;;;;;;;;;;;15.80;99.90;;;;;;4970667;28;20081;-68
2022/03/17 12:52:48;;;;;;;11.10;2.03;;;15.40;99.30;;;;;;4969264;28;20051;-68
2022/03/17 12:55:16;;;;;;;22.10;2.83;;;15.60;99.90;;;;;;4951533;28;20486;-68